createdAt,value
2023-04-18T00:01:57.569Z,8.2
2023-04-18T00:21:58.469Z,7.8
2023-04-18T00:31:59.477Z,7.7
2023-04-18T00:41:59.878Z,7.6
2023-04-18T00:52:00.215Z,7.5
2023-04-18T01:12:01.973Z,7.2
2023-04-18T01:22:02.838Z,7.2
2023-04-18T01:32:03.388Z,7.2
2023-04-18T01:42:04.220Z,7.2
2023-04-18T01:52:05.129Z,7.2
2023-04-18T02:02:05.761Z,7
2023-04-18T02:12:06.180Z,6.9
2023-04-18T02:22:06.392Z,6.8
2023-04-18T02:32:07.063Z,6.7
2023-04-18T02:42:07.214Z,6.7
2023-04-18T02:52:07.331Z,6.7
2023-04-18T03:02:07.736Z,6.7
2023-04-18T03:12:08.721Z,6.8
2023-04-18T03:22:09.025Z,6.9
2023-04-18T03:22:30.946Z,6.9
2023-04-18T03:32:15.298Z,7
2023-04-18T03:42:15.783Z,7
2023-04-18T03:52:16.522Z,7.1
2023-04-18T04:02:16.918Z,7.2
2023-04-18T04:12:17.200Z,7.3
2023-04-18T04:22:17.600Z,7.3
2023-04-18T04:32:18.317Z,7.3
2023-04-18T04:42:19.031Z,7.4
2023-04-18T04:52:19.815Z,7.4
2023-04-18T05:02:20.487Z,7.5
2023-04-18T05:12:21.412Z,7.5
2023-04-18T05:22:21.824Z,7.6
2023-04-18T05:32:22.345Z,7.6
2023-04-18T05:42:22.386Z,7.6
2023-04-18T05:52:22.492Z,7.7
2023-04-18T06:02:22.695Z,7.8
2023-04-18T06:12:23.403Z,7.8
2023-04-18T06:22:24.279Z,7.8
2023-04-18T06:32:24.869Z,7.8
2023-04-18T06:42:25.261Z,7.8
2023-04-18T06:52:25.376Z,7.8
2023-04-18T07:12:26.492Z,8
2023-04-18T07:22:27.270Z,8
2023-04-18T07:32:27.570Z,8
2023-04-18T07:42:28.118Z,8
2023-04-18T07:52:28.409Z,8
2023-04-18T08:02:28.838Z,8
2023-04-18T08:12:29.641Z,8.2
2023-04-18T08:22:29.953Z,8.3
2023-04-18T08:32:30.071Z,8.4
2023-04-18T08:42:31.042Z,8.6
2023-04-18T08:52:31.967Z,8.6
2023-04-18T09:02:32.920Z,8.7
2023-04-18T09:12:33.870Z,8.9
2023-04-18T09:22:34.248Z,9
2023-04-18T09:32:35.202Z,9.1
2023-04-18T09:42:35.651Z,9.5
2023-04-18T09:52:36.370Z,9.6
2023-04-18T10:02:37.492Z,9.6
2023-04-18T10:12:38.024Z,9.8
2023-04-18T10:22:38.283Z,9.8
2023-04-18T10:42:39.599Z,10
2023-04-18T10:52:40.298Z,10.2
2023-04-18T11:02:40.826Z,10.4
2023-04-18T11:12:41.373Z,10.7
2023-04-18T11:22:42.389Z,11
2023-04-18T11:32:43.086Z,11.1
2023-04-18T11:42:43.426Z,11.2
2023-04-18T11:52:43.593Z,11.3
2023-04-18T12:02:44.054Z,11.3
2023-04-18T12:12:44.616Z,11.5
2023-04-18T12:22:44.855Z,11.8
2023-04-18T12:32:45.129Z,11.7
2023-04-18T12:42:45.491Z,11.8
2023-04-18T13:02:47.460Z,12.1
2023-04-18T13:22:48.229Z,12.5
2023-04-18T13:42:49.724Z,12.6
2023-04-18T14:22:53.421Z,13.5
2023-04-18T14:42:55.152Z,13.7
2023-04-18T14:52:55.412Z,13.7
2023-04-18T15:02:55.840Z,13.9
2023-04-18T15:12:56.700Z,13.8
2023-04-18T15:22:57.167Z,13.8
2023-04-18T15:32:58.106Z,13.7
2023-04-18T15:42:58.376Z,13.8
2023-04-18T15:52:58.819Z,13.7
2023-04-18T16:02:59.159Z,13.7
2023-04-18T16:53:02.194Z,13.3
2023-04-18T18:03:05.044Z,12.5
2023-04-18T18:43:07.816Z,11.7
2023-04-18T19:03:08.576Z,11.4
2023-04-18T19:13:09.192Z,11.1
2023-04-18T19:23:09.779Z,11
2023-04-18T19:33:10.724Z,10.8
2023-04-18T19:43:11.818Z,10.6
2023-04-18T19:53:12.806Z,10.5
2023-04-18T20:03:13.147Z,10.4
2023-04-18T20:13:13.686Z,10.4
2023-04-18T20:23:13.892Z,10.4
2023-04-18T20:43:14.105Z,10.3
2023-04-18T20:53:15.054Z,10.2
2023-04-18T21:03:15.453Z,10.1
2023-04-18T21:23:16.409Z,10.1
2023-04-18T21:33:17.344Z,10.1
2023-04-18T21:43:18.168Z,10.1
2023-04-18T22:03:19.981Z,10.1
2023-04-18T22:23:21.057Z,10.2
2023-04-18T22:33:22.076Z,10.3
2023-04-18T22:43:23.034Z,10.4
2023-04-18T23:03:24.307Z,10.8
2023-04-18T23:13:25.045Z,10.9
2023-04-18T23:23:25.738Z,10.9
2023-04-18T23:43:27.401Z,11
2023-04-18T23:53:28.357Z,11
